Roanoke, VA

9:58 PM EDT on September 21, 2014 (GMT -0400)
Lost Mountain SW | Change Station
CLOSE
Current Station
Personal Weather Station
Location: Roanoke, VA
Elevation: 1827 ft
Nearby Weather Stations

Elev 1827 ft 37.21 °N, 80.10 °W | Updated 1 hour ago

Overcast
Overcast
72.5 °F
Feels Like 74 °F
N
3.1
Wind Variable Wind from SE
Gusts 5.4 mph

Today
High -- | Low -- °F
--% Chance of Precip.
Yesterday
High -- | Low -- °F
Precip. -- in
7:07 AM 7:18 PM
Waning Crescent, 4% visible
Pressure 29.84 in
Visibility 10.0 miles
Clouds Mostly Cloudy 5500 ft
Mostly Cloudy 6500 ft
Mostly Cloudy 9000 ft
Heat Index 74 °F
Dew Point 63 °F
Humidity 73%
Rainfall 0.00 in
Snow Depth Not available.
UV 0 out of 12
Pollen 5.20 out of 12
Ozone Good
PM2.5 Good
Flu Activity Not available.
METAR KROA 220054Z 32004KT 10SM BKN055 BKN065 BKN090 22/17 A2986 RMK AO2 SLP103 T02170172

More Conditions Fewer Conditions

Pressure 29.84 in
Visibility 10.0 miles
Clouds Mostly Cloudy 5500 ft
Mostly Cloudy 6500 ft
Mostly Cloudy 9000 ft
Heat Index 74 °F
Dew Point 63 °F
Humidity 73%
Rainfall 0.00 in
Snow Depth Not available.
UV 0 out of 12
Pollen 5.20 out of 12
Ozone Good
PM2.5 Good
Flu Activity Not available.
METAR KROA 220054Z 32004KT 10SM BKN055 BKN065 BKN090 22/17 A2986 RMK AO2 SLP103 T02170172

More Conditions Fewer Conditions

10-Day Weather Forecast

Almanac

Astronomy

Sep. 21, 2014 Rise Set
Actual Time 7:07 AM EDT 7:18 PM EDT
Civil Twilight 6:41 AM EDT 7:44 PM EDT
Nautical Twilight 6:10 AM EDT 8:15 PM EDT
Astronomical Twilight 5:40 AM EDT 8:46 PM EDT
Moon 4:42 AM EDT (9/21) 5:52 PM EDT (9/21)
Length of Visible Light 13h 03m
Length of Day
12h 11m
Tomorrow will be 2m 22s shorter.
Waning Crescent, 4% of the Moon is Illuminated
Today
Waning Crescent
Sep 24
New
Oct 1
First Quarter
Oct 8
Full
Oct 15
Last Quarter

Today's Extremes

State Highs State Lows

Community

WunderPhotos

Upload Photos

1,755,347 photos uploaded!

WunderBlogs® & News

Nearby

Air Quality

  Air Quality AQ Index Pollutant
Yesterday Good
PM2.5
Yesterday Good
OZONE
Current Good
PM2.5
Current Good
OZONE
Sunday Good
PM2.5
Monday Good
PM2.5

Snow Depth

Station Depth Elevation
No new snow has been reported.

Earthquake Activity

City Distance Mag. Time & Date
No recent earthquake activity has been reported nearby.
Minimum magnitude displayed is 2.5.

Coastal Water Temperatures

Place Temperature
No Stations Reporting

Nearby Weather Stations